Time;durP1;ratioP1;P1;durP2;ratioP2;P2;SDS_P1;SDS_P2;PMS_P1;PMS_P2;Temp;Humidity;BMP_temperature;BMP_pressure;BME280_temperature;BME280_humidity;BME280_pressure;Samples;Min_cycle;Max_cycle;Signal;HPM_P1;HPM_P2
2023/10/12 00:02:21;;;;;;;8.15;3.92;;;;;;;;;;5056468;28;20317;-75
2023/10/12 00:04:53;;;;;;;7.30;4.00;;;;;;;;;;5056443;28;20257;-75
2023/10/12 00:07:33;;;;;;;7.43;5.00;;;;;;;;;;5056770;28;20252;-75
2023/10/12 00:10:12;;;;;;;7.20;3.45;;;;;;;;;;5056720;28;20183;-76
2023/10/12 00:12:44;;;;;;;5.72;4.28;;;;;;;;;;5056319;28;20186;-75
2023/10/12 00:15:23;;;;;;;6.55;3.55;;;;;;;;;;5056204;28;20181;-75
2023/10/12 00:17:51;;;;;;;9.75;4.53;;;;;;;;;;5056511;28;20517;-75
2023/10/12 00:20:33;;;;;;;6.95;4.43;;;;;;;;;;5056300;28;20210;-76
2023/10/12 00:23:09;;;;;;;9.88;3.88;;;;;;;;;;5056374;28;20179;-75
2023/10/12 00:25:41;;;;;;;11.02;4.35;;;;;;;;;;5056371;28;20292;-75
2023/10/12 00:28:13;;;;;;;8.05;3.80;;;;;;;;;;5056447;28;20175;-75
2023/10/12 00:30:41;;;;;;;8.93;4.03;;;;;;;;;;5055861;28;20567;-75
2023/10/12 00:33:09;;;;;;;5.70;3.85;;;;;;;;;;5056150;28;20199;-75
2023/10/12 00:35:37;;;;;;;6.90;4.63;;;;;;;;;;5055633;28;20567;-75
2023/10/12 00:38:17;;;;;;;6.47;4.10;;;;;;;;;;5055685;28;20245;-75
2023/10/12 00:40:55;;;;;;;6.82;4.20;;;;;;;;;;5056129;28;20210;-76
2023/10/12 00:43:23;;;;;;;5.85;4.00;;;;;;;;;;5056187;28;20179;-75
2023/10/12 00:45:50;;;;;;;6.38;3.90;;;;;;;;;;5055811;28;20282;-75
2023/10/12 00:48:21;;;;;;;10.93;4.53;;;;;;;;;;5055789;28;20199;-75
2023/10/12 00:50:50;;;;;;;7.80;3.90;;;;;;;;;;5055522;28;20175;-76
2023/10/12 00:53:23;;;;;;;7.20;4.15;;;;;;;;;;5055831;28;20191;-75
2023/10/12 00:55:53;;;;;;;9.57;4.50;;;;;;;;;;5055856;28;20179;-75
2023/10/12 00:58:22;;;;;;;6.13;4.00;;;;;;;;;;5055796;28;20514;-75
2023/10/12 01:00:52;;;;;;;6.18;4.03;;;;;;;;;;5055517;28;20268;-75
2023/10/12 01:03:30;;;;;;;6.45;3.65;;;;;;;;;;5055605;28;20264;-75
2023/10/12 01:06:20;;;;;;;8.60;4.15;;;;;;;;;;5055346;28;20217;-75
2023/10/12 01:08:49;;;;;;;5.40;3.80;;;;;;;;;;5055226;28;20267;-75
2023/10/12 01:11:20;;;;;;;7.22;4.13;;;;;;;;;;5055165;28;20240;-75
2023/10/12 01:13:49;;;;;;;8.57;3.60;;;;;;;;;;5055123;28;20175;-76
2023/10/12 01:16:23;;;;;;;8.02;4.13;;;;;;;;;;5055401;28;20278;-75
2023/10/12 01:18:57;;;;;;;5.45;3.03;;;;;;;;;;5055393;28;20202;-75
2023/10/12 01:21:28;;;;;;;8.75;4.57;;;;;;;;;;5054881;28;20252;-75
2023/10/12 01:24:01;;;;;;;7.57;3.70;;;;;;;;;;5054952;28;20178;-75
2023/10/12 01:26:31;;;;;;;8.77;4.00;;;;;;;;;;5055156;28;20313;-75
2023/10/12 01:29:00;;;;;;;9.05;3.95;;;;;;;;;;5054779;28;20179;-75
2023/10/12 01:31:28;;;;;;;8.25;4.40;;;;;;;;;;5053693;28;20186;-75
2023/10/12 01:33:59;;;;;;;13.10;4.13;;;;;;;;;;5054636;28;20193;-76
2023/10/12 01:36:30;;;;;;;5.85;4.00;;;;;;;;;;5054735;28;20183;-75
2023/10/12 01:39:12;;;;;;;6.47;3.83;;;;;;;;;;5054668;28;20183;-75
2023/10/12 01:41:41;;;;;;;5.95;3.33;;;;;;;;;;5054975;28;20273;-75
2023/10/12 01:44:10;;;;;;;6.10;4.30;;;;;;;;;;5054436;28;20218;-75
2023/10/12 01:46:40;;;;;;;5.97;4.20;;;;;;;;;;5054761;28;20190;-75
2023/10/12 01:49:08;;;;;;;11.18;3.95;;;;;;;;;;5054268;28;20651;-75
2023/10/12 01:51:41;;;;;;;13.95;3.33;;;;;;;;;;5054726;28;20536;-75
2023/10/12 01:54:12;;;;;;;6.00;3.70;;;;;;;;;;5054309;28;20262;-75
2023/10/12 01:56:39;;;;;;;7.68;4.28;;;;;;;;;;5054551;28;20285;-75
2023/10/12 01:59:07;;;;;;;9.60;4.10;;;;;;;;;;5054460;28;20601;-75
2023/10/12 02:01:39;;;;;;;9.88;4.90;;;;;;;;;;5054439;28;20211;-75
2023/10/12 02:04:06;;;;;;;8.18;5.45;;;;;;;;;;5054707;28;20175;-75
2023/10/12 02:06:33;;;;;;;12.38;6.13;;;;;;;;;;5054156;28;20637;-75
2023/10/12 02:09:08;;;;;;;9.63;4.60;;;;;;;;;;5054321;28;20187;-75
2023/10/12 02:11:53;;;;;;;9.40;3.97;;;;;;;;;;5054037;28;20217;-75
2023/10/12 02:14:31;;;;;;;7.10;4.57;;;;;;;;;;5053884;28;20621;-75
2023/10/12 02:17:02;;;;;;;6.93;3.78;;;;;;;;;;5054308;28;20175;-75
2023/10/12 02:19:38;;;;;;;6.55;4.00;;;;;;;;;;5054297;28;20179;-75
2023/10/12 02:22:05;;;;;;;7.07;3.72;;;;;;;;;;5053837;28;20230;-75
2023/10/12 02:24:35;;;;;;;6.10;3.30;;;;;;;;;;5054022;28;20186;-75
2023/10/12 02:27:05;;;;;;;8.98;4.40;;;;;;;;;;5053852;28;20637;-75
2023/10/12 02:29:35;;;;;;;5.85;3.17;;;;;;;;;;5053935;28;20187;-75
2023/10/12 02:32:17;;;;;;;7.07;3.20;;;;;;;;;;5054008;28;20186;-75
2023/10/12 02:34:46;;;;;;;5.18;3.22;;;;;;;;;;5053715;28;20183;-75
2023/10/12 02:37:21;;;;;;;6.10;4.25;;;;;;;;;;5053980;28;20214;-75
2023/10/12 02:39:48;;;;;;;7.63;4.40;;;;;;;;;;5053662;28;20174;-76
2023/10/12 02:42:28;;;;;;;8.27;3.67;;;;;;;;;;5053787;28;20211;-75
2023/10/12 02:45:09;;;;;;;7.80;3.75;;;;;;;;;;5053674;28;20264;-75
2023/10/12 02:47:40;;;;;;;6.32;3.85;;;;;;;;;;5053734;28;20622;-75
2023/10/12 02:50:21;;;;;;;10.23;4.05;;;;;;;;;;5053799;28;20536;-75
2023/10/12 02:52:51;;;;;;;6.65;3.40;;;;;;;;;;5053751;28;20640;-75
2023/10/12 02:55:25;;;;;;;5.80;3.30;;;;;;;;;;5053789;28;20179;-75
2023/10/12 02:57:56;;;;;;;7.65;3.80;;;;;;;;;;5053376;28;20185;-75
2023/10/12 03:00:33;;;;;;;7.25;3.45;;;;;;;;;;5053319;28;20210;-75
2023/10/12 03:03:07;;;;;;;13.30;4.07;;;;;;;;;;5053655;28;20185;-75
2023/10/12 03:05:45;;;;;;;4.68;3.08;;;;;;;;;;5053263;28;20213;-75
2023/10/12 03:08:15;;;;;;;6.15;3.40;;;;;;;;;;5053614;28;20232;-75
2023/10/12 03:11:00;;;;;;;5.35;4.35;;;;;;;;;;5053497;28;20186;-75
2023/10/12 03:13:34;;;;;;;8.43;4.30;;;;;;;;;;5053298;28;20179;-75
2023/10/12 03:16:08;;;;;;;7.63;4.18;;;;;;;;;;5053584;28;20590;-75
2023/10/12 03:18:36;;;;;;;8.35;4.07;;;;;;;;;;5053513;28;20263;-75
2023/10/12 03:21:04;;;;;;;8.68;4.07;;;;;;;;;;5053588;28;20550;-75
2023/10/12 03:23:34;;;;;;;5.93;3.70;;;;;;;;;;5053606;28;20187;-75
2023/10/12 03:26:07;;;;;;;11.80;5.40;;;;;;;;;;5053284;28;20302;-75
2023/10/12 03:28:44;;;;;;;10.90;5.00;;;;;;;;;;5053469;28;20179;-75
2023/10/12 03:31:22;;;;;;;13.18;5.65;;;;;;;;;;5053530;28;20189;-75
2023/10/12 03:33:54;;;;;;;10.02;4.35;;;;;;;;;;5052966;28;20179;-76
2023/10/12 03:36:25;;;;;;;7.60;4.57;;;;;;;;;;5053029;28;20182;-80
2023/10/12 03:39:08;;;;;;;5.80;4.05;;;;;;;;;;5053412;28;20498;-75
2023/10/12 03:41:54;;;;;;;9.25;3.75;;;;;;;;;;5052936;28;20675;-76
2023/10/12 03:44:36;;;;;;;7.95;3.40;;;;;;;;;;5052820;28;20191;-75
2023/10/12 03:47:14;;;;;;;6.20;3.60;;;;;;;;;;5052901;28;20197;-76
2023/10/12 03:49:57;;;;;;;6.35;4.00;;;;;;;;;;5052971;28;20185;-75
2023/10/12 03:52:28;;;;;;;6.53;3.88;;;;;;;;;;5053255;28;20228;-75
2023/10/12 03:55:16;;;;;;;6.10;3.17;;;;;;;;;;5052331;28;20171;-75
2023/10/12 03:57:50;;;;;;;4.70;3.13;;;;;;;;;;5052875;28;20183;-75
2023/10/12 04:00:32;;;;;;;9.13;3.70;;;;;;;;;;5053070;28;20178;-75
2023/10/12 04:03:04;;;;;;;7.63;3.40;;;;;;;;;;5052875;28;20207;-75
2023/10/12 04:05:51;;;;;;;6.82;3.80;;;;;;;;;;5052884;28;20174;-75
2023/10/12 04:14:17;;;;;;;5.00;3.45;;;;;;;;;;4995067;28;20243;-75
2023/10/12 04:16:45;;;;;;;7.25;4.18;;;;;;;;;;5056298;28;20617;-75
2023/10/12 04:19:18;;;;;;;5.50;3.58;;;;;;;;;;5056513;28;20187;-75
2023/10/12 04:22:05;;;;;;;6.47;3.25;;;;;;;;;;5056141;28;20653;-75
2023/10/12 04:24:42;;;;;;;6.85;4.00;;;;;;;;;;5056448;28;20171;-75
2023/10/12 04:27:23;;;;;;;8.00;3.30;;;;;;;;;;5056297;28;20310;-75
2023/10/12 04:29:56;;;;;;;6.00;3.90;;;;;;;;;;5056174;28;20183;-75
2023/10/12 04:35:20;;;;;;;8.23;5.38;;;;;;;;;;4994268;28;20278;-75
2023/10/12 04:37:48;;;;;;;6.13;3.92;;;;;;;;;;5054775;28;20655;-75
2023/10/12 04:40:36;;;;;;;6.57;3.60;;;;;;;;;;5056039;28;20539;-75
2023/10/12 04:43:06;;;;;;;9.07;4.88;;;;;;;;;;5055981;28;20246;-75
2023/10/12 04:46:05;;;;;;;8.52;4.65;;;;;;;;;;5055586;28;20271;-75
2023/10/12 04:48:31;;;;;;;9.18;5.05;;;;;;;;;;5055485;28;20198;-75
2023/10/12 04:50:59;;;;;;;6.28;4.45;;;;;;;;;;5056243;28;20269;-75
2023/10/12 04:53:35;;;;;;;11.32;4.50;;;;;;;;;;5055858;28;20195;-75
2023/10/12 04:56:09;;;;;;;8.15;5.03;;;;;;;;;;5055829;28;20174;-75
2023/10/12 04:58:42;;;;;;;7.82;4.18;;;;;;;;;;5054774;28;20592;-75
2023/10/12 05:01:19;;;;;;;6.25;4.50;;;;;;;;;;5055548;28;20190;-75
2023/10/12 05:04:07;;;;;;;7.43;4.10;;;;;;;;;;5055387;28;20266;-75
2023/10/12 05:06:36;;;;;;;10.38;4.13;;;;;;;;;;5054776;28;20258;-75
2023/10/12 05:09:11;;;;;;;7.78;3.20;;;;;;;;;;5050975;28;20189;-80
2023/10/12 05:11:38;;;;;;;5.90;4.18;;;;;;;;;;5052531;28;20193;-75
2023/10/12 05:14:14;;;;;;;7.95;4.32;;;;;;;;;;5053666;28;20189;-75
2023/10/12 05:16:43;;;;;;;6.03;3.60;;;;;;;;;;5053471;28;20617;-75
2023/10/12 05:19:12;;;;;;;13.80;7.22;;;;;;;;;;5052287;28;20257;-74
2023/10/12 05:21:40;;;;;;;17.30;10.93;;;;;;;;;;5052533;28;20542;-75
2023/10/12 05:24:09;;;;;;;17.08;8.80;;;;;;;;;;5052843;28;20650;-75
2023/10/12 05:26:38;;;;;;;11.10;5.07;;;;;;;;;;5049693;28;20217;-75
2023/10/12 05:29:34;;;;;;;13.32;4.65;;;;;;;;;;5048765;28;20191;-75
2023/10/12 05:32:06;;;;;;;6.60;4.20;;;;;;;;;;5049173;28;20202;-75
2023/10/12 05:34:44;;;;;;;7.65;4.20;;;;;;;;;;5052588;28;20183;-75
2023/10/12 05:37:24;;;;;;;6.20;4.20;;;;;;;;;;5050978;28;20248;-75
2023/10/12 05:39:52;;;;;;;7.40;3.85;;;;;;;;;;5051186;28;20170;-76
2023/10/12 05:42:22;;;;;;;6.38;3.72;;;;;;;;;;5049499;28;20220;-77
2023/10/12 05:44:49;;;;;;;6.82;4.50;;;;;;;;;;5051239;28;20626;-75
2023/10/12 05:47:28;;;;;;;7.80;3.60;;;;;;;;;;5052755;28;20186;-75
2023/10/12 05:49:58;;;;;;;7.28;4.38;;;;;;;;;;5048338;28;20167;-75
2023/10/12 05:52:25;;;;;;;10.13;3.58;;;;;;;;;;5049406;28;20195;-75
2023/10/12 05:54:57;;;;;;;6.75;3.83;;;;;;;;;;5050634;28;20626;-75
2023/10/12 05:57:26;;;;;;;6.55;3.60;;;;;;;;;;5052419;28;20183;-74
2023/10/12 05:59:58;;;;;;;6.05;3.80;;;;;;;;;;5052477;28;20191;-74
2023/10/12 06:02:25;;;;;;;5.68;3.80;;;;;;;;;;5051121;28;20536;-74
2023/10/12 06:04:53;;;;;;;8.50;4.10;;;;;;;;;;5051590;28;20187;-75
2023/10/12 06:07:22;;;;;;;5.28;3.75;;;;;;;;;;5052213;28;20232;-75
2023/10/12 06:09:52;;;;;;;7.40;3.65;;;;;;;;;;5051713;28;20197;-76
2023/10/12 06:12:24;;;;;;;18.60;5.40;;;;;;;;;;5050206;28;20277;-75
2023/10/12 06:14:54;;;;;;;7.88;4.25;;;;;;;;;;5047126;28;20171;-75
2023/10/12 06:17:30;;;;;;;11.27;5.25;;;;;;;;;;5050789;28;20270;-75
2023/10/12 06:20:03;;;;;;;9.80;4.90;;;;;;;;;;5050928;28;20605;-76
2023/10/12 06:22:37;;;;;;;5.70;4.15;;;;;;;;;;5046639;28;20244;-75
2023/10/12 06:25:08;;;;;;;8.25;4.88;;;;;;;;;;5049309;28;20182;-75
2023/10/12 06:27:37;;;;;;;6.15;4.13;;;;;;;;;;5051816;28;20673;-74
2023/10/12 06:30:16;;;;;;;8.70;4.15;;;;;;;;;;5049648;28;20190;-75
2023/10/12 06:32:46;;;;;;;8.63;4.30;;;;;;;;;;5050718;28;20518;-74
2023/10/12 06:35:23;;;;;;;13.15;4.30;;;;;;;;;;5051959;28;20606;-76
2023/10/12 06:38:15;;;;;;;9.15;4.28;;;;;;;;;;5052720;28;20237;-75
2023/10/12 06:40:48;;;;;;;8.20;3.92;;;;;;;;;;5051434;28;20198;-74
2023/10/12 06:46:03;;;;;;;6.65;4.05;;;;;;;;;;5049461;28;20388;-75
2023/10/12 06:48:47;;;;;;;10.02;3.10;;;;;;;;;;5052698;28;20186;-73
2023/10/12 06:51:15;;;;;;;9.05;3.60;;;;;;;;;;5052615;28;20194;-75
2023/10/12 06:53:45;;;;;;;8.85;4.22;;;;;;;;;;5052134;28;20712;-75
2023/10/12 06:56:24;;;;;;;7.65;4.57;;;;;;;;;;5052761;28;20201;-74
2023/10/12 07:01:38;;;;;;;9.73;2.85;;;;;;;;;;5049149;28;20312;-73
2023/10/12 07:04:13;;;;;;;8.13;4.88;;;;;;;;;;5052465;28;20559;-74
2023/10/12 07:06:40;;;;;;;10.00;4.07;;;;;;;;;;5052400;28;20277;-75
2023/10/12 07:09:09;;;;;;;11.73;3.90;;;;;;;;;;5052518;28;20194;-74
2023/10/12 07:11:39;;;;;;;8.17;3.90;;;;;;;;;;5052269;28;20503;-74
2023/10/12 07:14:07;;;;;;;6.33;3.03;;;;;;;;;;5051907;28;20473;-75
2023/10/12 07:16:43;;;;;;;6.37;3.47;;;;;;;;;;5052580;28;20441;-75
2023/10/12 07:19:12;;;;;;;8.90;3.83;;;;;;;;;;5052535;28;20437;-74
2023/10/12 07:21:39;;;;;;;22.33;4.30;;;;;;;;;;5052483;28;20469;-74
2023/10/12 07:24:07;;;;;;;13.90;4.23;;;;;;;;;;5052155;28;20481;-74
2023/10/12 07:26:36;;;;;;;18.33;5.07;;;;;;;;;;5052261;28;20794;-78
2023/10/12 07:29:19;;;;;;;16.10;3.80;;;;;;;;;;5052054;28;20473;-73
2023/10/12 07:31:48;;;;;;;9.27;3.83;;;;;;;;;;5052118;28;20433;-75
2023/10/12 07:34:16;;;;;;;7.97;3.40;;;;;;;;;;5052042;28;20438;-75
2023/10/12 07:36:53;;;;;;;7.60;5.00;;;;;;;;;;5052122;28;20474;-75
2023/10/12 07:39:21;;;;;;;6.63;3.00;;;;;;;;;;5052291;28;20436;-76
2023/10/12 07:41:57;;;;;;;7.60;2.97;;;;;;;;;;5051949;28;20437;-75
2023/10/12 07:44:25;;;;;;;7.10;3.20;;;;;;;;;;5051537;28;20448;-76
2023/10/12 07:46:56;;;;;;;8.13;3.17;;;;;;;;;;5055633;28;20448;-76
2023/10/12 07:49:36;;;;;;;12.73;3.70;;;;;;;;;;5056240;28;20445;-78
2023/10/12 07:52:09;;;;;;;15.77;3.60;;;;;;;;;;5056089;28;20536;-74
2023/10/12 07:54:58;;;;;;;14.20;3.60;;;;;;;;;;5055597;28;20524;-75
2023/10/12 07:57:30;;;;;;;7.13;3.20;;;;;;;;;;5056051;28;20433;-76
2023/10/12 08:08:17;;;;;;;9.13;3.50;;;;;;;;;;5056030;28;20792;-76
2023/10/12 08:10:58;;;;;;;8.73;3.60;;;;;;;;;;5056044;28;20428;-76
2023/10/12 08:13:26;;;;;;;14.73;4.40;;;;;;;;;;5056467;28;20787;-75
2023/10/12 08:15:58;;;;;;;7.97;2.93;;;;;;;;;;5056235;28;20436;-75
2023/10/12 08:21:22;;;;;;;11.83;3.53;;;;;;;;;;5055665;28;20418;-76
2023/10/12 08:23:50;;;;;;;8.40;3.47;;;;;;;;;;5055774;28;20465;-76
2023/10/12 08:26:35;;;;;;;12.33;2.77;;;;;;;;;;5055759;28;20808;-73
2023/10/12 08:29:09;;;;;;;11.80;3.50;;;;;;;;;;5056043;28;20439;-75
2023/10/12 08:31:43;;;;;;;8.63;3.43;;;;;;;;;;5055721;28;20462;-74
2023/10/12 08:34:41;;;;;;;5.70;3.00;;;;;;;;;;5055549;28;20467;-74
2023/10/12 08:37:17;;;;;;;9.60;3.33;;;;;;;;;;5055481;28;20432;-73
2023/10/12 08:39:51;;;;;;;7.93;2.90;;;;;;;;;;5055612;28;20444;-74
2023/10/12 08:42:36;;;;;;;6.17;3.23;;;;;;;;;;5055944;28;20417;-74
2023/10/12 08:45:09;;;;;;;7.20;3.00;;;;;;;;;;5055392;28;20421;-74
2023/10/12 08:47:44;;;;;;;7.00;3.53;;;;;;;;;;5055419;28;20424;-73
2023/10/12 08:50:47;;;;;;;10.60;3.30;;;;;;;;;;5055742;28;20778;-73
2023/10/12 08:53:05;;;;;;;6.17;3.27;;;;;;;;;;5055204;28;20460;-74
2023/10/12 08:55:33;;;;;;;6.27;3.10;;;;;;;;;;5055251;28;20437;-74
2023/10/12 08:58:11;;;;;;;7.70;3.37;;;;;;;;;;5054369;28;20903;-74
2023/10/12 09:00:43;;;;;;;4.70;2.40;;;;;;;;;;5055184;28;20443;-74
2023/10/12 09:05:54;;;;;;;4.80;2.40;;;;;;;;;;5052311;28;20420;-74
2023/10/12 09:11:26;;;;;;;6.63;3.20;;;;;;;;;;5090485;27;20535;-76
2023/10/12 09:13:57;;;;;;;5.43;3.20;;;;;;;;;;5090022;28;20761;-76
2023/10/12 09:16:26;;;;;;;5.00;2.40;;;;;;;;;;5090690;28;20483;-74
2023/10/12 09:18:59;;;;;;;8.13;2.80;;;;;;;;;;5090581;28;20461;-74
2023/10/12 09:21:38;;;;;;;3.50;2.57;;;;;;;;;;5091067;28;20454;-74
2023/10/12 09:24:06;;;;;;;6.00;3.03;;;;;;;;;;5090516;28;20506;-74
2023/10/12 09:26:37;;;;;;;12.80;2.90;;;;;;;;;;5090385;28;20440;-74
2023/10/12 09:29:12;;;;;;;4.23;3.07;;;;;;;;;;5090317;28;20423;-74
2023/10/12 09:34:43;;;;;;;6.33;2.90;;;;;;;;;;5090422;28;20394;-74
2023/10/12 09:37:16;;;;;;;8.83;3.47;;;;;;;;;;5090559;28;20427;-74
2023/10/12 09:39:45;;;;;;;7.43;3.10;;;;;;;;;;5090688;28;20435;-75
2023/10/12 09:42:22;;;;;;;6.20;3.10;;;;;;;;;;5090144;28;21026;-73
2023/10/12 09:44:52;;;;;;;6.63;3.60;;;;;;;;;;5090208;28;20419;-74
2023/10/12 09:47:23;;;;;;;7.33;3.50;;;;;;;;;;5090248;28;20435;-74
2023/10/12 09:49:56;;;;;;;7.00;2.80;;;;;;;;;;5090168;28;20513;-74
2023/10/12 09:52:25;;;;;;;4.40;2.40;;;;;;;;;;5089969;28;20783;-74
2023/10/12 09:54:56;;;;;;;4.33;2.93;;;;;;;;;;5090171;28;20435;-74
2023/10/12 09:57:26;;;;;;;4.93;2.87;;;;;;;;;;5089945;28;20423;-74
2023/10/12 09:59:59;;;;;;;6.50;3.00;;;;;;;;;;5090155;28;20466;-74
2023/10/12 10:02:30;;;;;;;5.60;3.03;;;;;;;;;;5090133;28;20419;-75
2023/10/12 10:05:10;;;;;;;6.10;2.87;;;;;;;;;;5090156;28;20429;-74
2023/10/12 10:07:38;;;;;;;5.90;3.17;;;;;;;;;;5089695;28;20419;-74
2023/10/12 10:10:16;;;;;;;6.27;2.93;;;;;;;;;;5089342;28;20826;-75
2023/10/12 10:12:44;;;;;;;5.00;3.03;;;;;;;;;;5090034;28;20429;-74
2023/10/12 10:15:20;;;;;;;10.77;3.30;;;;;;;;;;5089223;28;20922;-74
2023/10/12 10:17:52;;;;;;;4.60;2.87;;;;;;;;;;5089956;28;20431;-74
2023/10/12 10:23:14;;;;;;;7.73;2.83;;;;;;;;;;5075990;28;20412;-73
2023/10/12 10:25:46;;;;;;;6.37;3.83;;;;;;;;;;5076205;28;20779;-74
2023/10/12 10:28:23;;;;;;;5.87;3.20;;;;;;;;;;5076087;28;20424;-74
2023/10/12 10:30:52;;;;;;;4.43;2.50;;;;;;;;;;5075590;28;20475;-74
2023/10/12 10:33:22;;;;;;;5.63;3.00;;;;;;;;;;5075991;28;20462;-74
2023/10/12 10:36:00;;;;;;;6.80;3.10;;;;;;;;;;5076323;28;20439;-74
2023/10/12 10:38:32;;;;;;;5.30;3.23;;;;;;;;;;5075871;28;20431;-74
2023/10/12 10:41:07;;;;;;;6.73;3.07;;;;;;;;;;5075961;28;20785;-73
2023/10/12 10:43:37;;;;;;;5.40;2.70;;;;;;;;;;5075870;28;20424;-74
2023/10/12 10:46:06;;;;;;;4.53;2.57;;;;;;;;;;5076053;28;20438;-74
2023/10/12 10:48:36;;;;;;;5.10;3.50;;;;;;;;;;5075734;28;20463;-74
2023/10/12 10:51:06;;;;;;;4.70;2.80;;;;;;;;;;5075299;28;20953;-74
2023/10/12 10:53:36;;;;;;;7.93;3.03;;;;;;;;;;5075579;28;20440;-74
2023/10/12 10:56:10;;;;;;;7.70;3.40;;;;;;;;;;5075285;28;20511;-74
2023/10/12 10:58:39;;;;;;;7.83;3.40;;;;;;;;;;5075878;28;20481;-74
2023/10/12 11:01:12;;;;;;;7.47;3.43;;;;;;;;;;5075424;28;20519;-74
2023/10/12 11:03:39;;;;;;;5.37;3.53;;;;;;;;;;5075452;28;20452;-74
2023/10/12 11:06:10;;;;;;;5.57;3.30;;;;;;;;;;5074992;28;20436;-74
2023/10/12 11:08:43;;;;;;;10.53;3.30;;;;;;;;;;5074857;28;20508;-74
2023/10/12 11:11:25;;;;;;;12.43;3.90;;;;;;;;;;5074763;28;20483;-73
2023/10/12 11:13:55;;;;;;;5.87;3.00;;;;;;;;;;5074896;28;20547;-74
2023/10/12 11:16:28;;;;;;;5.40;2.93;;;;;;;;;;5074669;28;20462;-74
2023/10/12 11:18:57;;;;;;;6.57;3.60;;;;;;;;;;5075193;28;20425;-74
2023/10/12 11:21:26;;;;;;;9.10;3.33;;;;;;;;;;5087791;28;20447;-74
2023/10/12 11:24:03;;;;;;;4.00;2.83;;;;;;;;;;5094605;28;20432;-74
2023/10/12 11:26:39;;;;;;;8.90;4.30;;;;;;;;;;5090409;28;20429;-77
2023/10/12 11:29:11;;;;;;;6.60;3.63;;;;;;;;;;5074822;28;20424;-75
2023/10/12 11:31:38;;;;;;;7.07;3.40;;;;;;;;;;5071203;28;20469;-76
2023/10/12 11:34:11;;;;;;;7.60;2.93;;;;;;;;;;5059279;28;20429;-78
2023/10/12 11:36:39;;;;;;;7.93;3.57;;;;;;;;;;5054683;28;20423;-76
2023/10/12 11:39:16;;;;;;;9.33;3.10;;;;;;;;;;5062158;28;20827;-75
2023/10/12 11:41:43;;;;;;;5.67;2.80;;;;;;;;;;5085543;28;20544;-75
2023/10/12 11:44:12;;;;;;;6.10;2.83;;;;;;;;;;5092782;28;20446;-78
2023/10/12 11:46:44;;;;;;;5.63;2.77;;;;;;;;;;5081465;28;20430;-76
2023/10/12 11:49:11;;;;;;;5.10;2.73;;;;;;;;;;5066519;28;20462;-75
2023/10/12 11:51:50;;;;;;;7.03;2.80;;;;;;;;;;5075332;28;20488;-75
2023/10/12 11:54:21;;;;;;;8.33;3.80;;;;;;;;;;5085436;28;20438;-75
2023/10/12 11:56:49;;;;;;;10.57;3.90;;;;;;;;;;5077491;28;20436;-76
2023/10/12 11:59:25;;;;;;;7.83;3.47;;;;;;;;;;5086719;28;20439;-76
2023/10/12 12:01:57;;;;;;;5.80;2.20;;;;;;;;;;5088693;28;20443;-73
2023/10/12 12:04:31;;;;;;;6.67;3.90;;;;;;;;;;5087071;28;21009;-75
2023/10/12 12:07:00;;;;;;;5.33;2.90;;;;;;;;;;5085993;28;20845;-75
2023/10/12 12:09:28;;;;;;;8.10;3.10;;;;;;;;;;5085801;28;20467;-76
2023/10/12 12:11:56;;;;;;;11.07;3.47;;;;;;;;;;5089801;28;20572;-75
2023/10/12 12:14:25;;;;;;;8.83;3.20;;;;;;;;;;5092813;28;20446;-75
2023/10/12 12:16:53;;;;;;;8.60;3.30;;;;;;;;;;5090081;28;20534;-74
2023/10/12 12:19:24;;;;;;;6.63;3.57;;;;;;;;;;5086944;28;20443;-76
2023/10/12 12:21:52;;;;;;;6.00;3.37;;;;;;;;;;5086186;28;20500;-76
2023/10/12 12:24:29;;;;;;;11.30;3.50;;;;;;;;;;5093309;28;20992;-76
2023/10/12 12:26:56;;;;;;;6.40;3.00;;;;;;;;;;5090458;28;20442;-77
2023/10/12 12:29:26;;;;;;;6.70;3.57;;;;;;;;;;5086209;28;20435;-75
2023/10/12 12:31:57;;;;;;;6.60;3.30;;;;;;;;;;5082221;28;20501;-76
2023/10/12 12:34:41;;;;;;;5.57;2.67;;;;;;;;;;5086415;28;20446;-75
2023/10/12 12:37:09;;;;;;;6.77;3.30;;;;;;;;;;5086488;28;20528;-75
2023/10/12 12:39:36;;;;;;;6.00;2.63;;;;;;;;;;5088673;28;20923;-75
2023/10/12 12:42:09;;;;;;;5.03;3.07;;;;;;;;;;5088908;28;20786;-75
2023/10/12 12:44:39;;;;;;;6.00;2.60;;;;;;;;;;5089603;28;20435;-76
2023/10/12 12:47:07;;;;;;;3.57;2.60;;;;;;;;;;5089299;28;20462;-76
2023/10/12 12:49:34;;;;;;;8.53;3.00;;;;;;;;;;5092165;28;20431;-76
2023/10/12 12:52:03;;;;;;;5.50;3.00;;;;;;;;;;5092613;28;20995;-77
2023/10/12 12:54:31;;;;;;;4.90;2.67;;;;;;;;;;5087960;28;20526;-76
2023/10/12 12:56:58;;;;;;;9.30;2.80;;;;;;;;;;5090332;28;20439;-75
2023/10/12 12:59:27;;;;;;;4.90;3.00;;;;;;;;;;5092124;28;20778;-75
2023/10/12 13:01:56;;;;;;;4.53;2.93;;;;;;;;;;5092960;28;20435;-75
2023/10/12 13:04:23;;;;;;;5.93;2.67;;;;;;;;;;5092631;28;20435;-75
2023/10/12 13:06:51;;;;;;;8.67;3.47;;;;;;;;;;5084923;28;20927;-76
2023/10/12 13:09:29;;;;;;;7.87;3.00;;;;;;;;;;5080784;28;20466;-76
2023/10/12 13:11:56;;;;;;;4.60;3.00;;;;;;;;;;5086162;28;20467;-75
2023/10/12 13:14:24;;;;;;;6.77;3.57;;;;;;;;;;5092434;28;20905;-75
2023/10/12 13:16:52;;;;;;;5.10;3.30;;;;;;;;;;5084744;28;20427;-75
2023/10/12 13:19:21;;;;;;;5.40;2.70;;;;;;;;;;5085917;28;20817;-77
2023/10/12 13:21:50;;;;;;;6.83;3.07;;;;;;;;;;5092274;28;20497;-77
2023/10/12 13:24:17;;;;;;;5.90;2.70;;;;;;;;;;5092738;28;20781;-76
2023/10/12 13:26:47;;;;;;;3.90;2.60;;;;;;;;;;5092547;28;20435;-76
2023/10/12 13:29:14;;;;;;;7.57;3.20;;;;;;;;;;5085690;28;20437;-76
2023/10/12 13:31:42;;;;;;;5.73;2.73;;;;;;;;;;5092235;28;20483;-76
2023/10/12 13:34:10;;;;;;;8.50;3.57;;;;;;;;;;5088056;28;20444;-76
2023/10/12 13:36:39;;;;;;;11.87;2.60;;;;;;;;;;5092542;28;20475;-75
2023/10/12 13:39:09;;;;;;;7.47;3.20;;;;;;;;;;5084834;28;20459;-75
2023/10/12 13:41:37;;;;;;;8.03;2.90;;;;;;;;;;5090828;28;20439;-76
2023/10/12 13:44:06;;;;;;;5.63;3.10;;;;;;;;;;5092201;28;20438;-76
2023/10/12 13:46:34;;;;;;;5.07;2.63;;;;;;;;;;5092020;28;20450;-75
2023/10/12 13:49:06;;;;;;;8.70;2.47;;;;;;;;;;5085671;28;20467;-75
2023/10/12 13:51:36;;;;;;;5.47;2.80;;;;;;;;;;5092557;28;20472;-75
2023/10/12 13:54:06;;;;;;;6.43;2.53;;;;;;;;;;5092141;28;20447;-76
2023/10/12 13:56:34;;;;;;;11.13;2.60;;;;;;;;;;5093655;28;20529;-75
2023/10/12 13:59:02;;;;;;;5.23;2.50;;;;;;;;;;5088764;28;20437;-74
2023/10/12 14:01:33;;;;;;;8.10;2.53;;;;;;;;;;5093229;28;20503;-74
2023/10/12 14:04:00;;;;;;;7.23;2.37;;;;;;;;;;5095594;28;20446;-74
2023/10/12 14:06:28;;;;;;;9.93;3.13;;;;;;;;;;5096202;28;20482;-75
2023/10/12 14:08:56;;;;;;;6.87;3.00;;;;;;;;;;5081986;28;20519;-75
2023/10/12 14:11:24;;;;;;;7.60;2.90;;;;;;;;;;5087858;28;20478;-75
2023/10/12 14:13:51;;;;;;;10.90;3.07;;;;;;;;;;5091906;28;20457;-75
2023/10/12 14:16:19;;;;;;;10.97;3.10;;;;;;;;;;5091852;28;20486;-75
2023/10/12 14:18:49;;;;;;;6.57;2.70;;;;;;;;;;5094977;28;20454;-75
2023/10/12 14:21:19;;;;;;;6.33;3.27;;;;;;;;;;5095578;28;20435;-76
2023/10/12 14:23:48;;;;;;;6.70;3.70;;;;;;;;;;5096123;28;20534;-75
2023/10/12 14:26:17;;;;;;;7.40;2.50;;;;;;;;;;5095726;28;20441;-75
2023/10/12 14:28:47;;;;;;;5.50;2.70;;;;;;;;;;5090965;28;20451;-75
2023/10/12 14:31:14;;;;;;;6.30;3.00;;;;;;;;;;5095215;28;20494;-75
2023/10/12 14:33:42;;;;;;;8.90;2.70;;;;;;;;;;5095409;28;20439;-75
2023/10/12 14:36:10;;;;;;;5.50;2.27;;;;;;;;;;5092119;28;20508;-75
2023/10/12 14:38:41;;;;;;;9.23;3.10;;;;;;;;;;5094536;28;20454;-74
2023/10/12 14:41:09;;;;;;;6.43;2.40;;;;;;;;;;5094287;28;20463;-75
2023/10/12 14:43:37;;;;;;;7.43;2.57;;;;;;;;;;5092845;28;20471;-74
2023/10/12 14:46:10;;;;;;;6.83;2.70;;;;;;;;;;5091562;28;20435;-75
2023/10/12 14:48:38;;;;;;;8.37;3.20;;;;;;;;;;5093900;28;20435;-74
2023/10/12 14:51:08;;;;;;;6.47;2.43;;;;;;;;;;5088623;28;20539;-75
2023/10/12 14:53:36;;;;;;;4.50;2.73;;;;;;;;;;5091970;28;20471;-74
2023/10/12 14:56:04;;;;;;;5.57;2.50;;;;;;;;;;5095188;28;20781;-74
2023/10/12 14:58:31;;;;;;;5.70;2.50;;;;;;;;;;5087164;28;20482;-75
2023/10/12 15:00:59;;;;;;;7.27;2.80;;;;;;;;;;5086541;28;20471;-75
2023/10/12 15:03:34;;;;;;;7.20;2.87;;;;;;;;;;5091476;28;20432;-75
2023/10/12 15:06:02;;;;;;;4.87;2.93;;;;;;;;;;5079638;28;20444;-75
2023/10/12 15:08:30;;;;;;;6.23;3.07;;;;;;;;;;5086843;28;20439;-75
2023/10/12 15:10:59;;;;;;;8.03;3.90;;;;;;;;;;5085711;28;20583;-75
2023/10/12 15:13:27;;;;;;;5.60;3.03;;;;;;;;;;5090506;28;20948;-75
2023/10/12 15:15:54;;;;;;;6.77;2.40;;;;;;;;;;5094361;28;20431;-75
2023/10/12 15:18:23;;;;;;;6.70;2.63;;;;;;;;;;5092544;28;20432;-75
2023/10/12 15:20:52;;;;;;;7.93;2.97;;;;;;;;;;5085423;28;21011;-75
2023/10/12 15:23:21;;;;;;;8.43;2.37;;;;;;;;;;5094544;28;20436;-75
2023/10/12 15:25:48;;;;;;;9.67;3.57;;;;;;;;;;5094522;28;20504;-75
2023/10/12 15:28:17;;;;;;;5.23;2.33;;;;;;;;;;5086010;28;20450;-75
2023/10/12 15:30:45;;;;;;;5.13;2.73;;;;;;;;;;5093704;28;20443;-76
2023/10/12 15:33:12;;;;;;;6.37;3.10;;;;;;;;;;5094123;28;20435;-75
2023/10/12 15:35:40;;;;;;;7.73;2.23;;;;;;;;;;5094329;28;20568;-74
2023/10/12 15:38:09;;;;;;;5.43;2.50;;;;;;;;;;5094260;28;20492;-75
2023/10/12 15:40:38;;;;;;;4.97;2.50;;;;;;;;;;5082459;28;20984;-75
2023/10/12 15:43:08;;;;;;;6.37;2.90;;;;;;;;;;5086229;28;20833;-76
2023/10/12 15:45:38;;;;;;;6.27;2.50;;;;;;;;;;5085708;28;20439;-77
2023/10/12 15:48:09;;;;;;;6.77;2.73;;;;;;;;;;5086256;28;20451;-75